Lacy, Texas
Current Conditions -  °F | °C
As of 6:53 AM on Thursday 30 Oct 2014 (Local Time) from KLFK Reporting Station
Clear Clear  
Wind Chill: 48°   Ceiling: Unl
Heat Index: 48°   Visibility: 10mi
Dew Point: 44°   Wind: 0mph
Humidity: 86%   Direction: NA
Pressure: 30.14"   Gusts: NA
Location:  31.0585°N, 95.0561°W
Report Text: KLFK 301153Z AUTO 00000KT 10SM CLR 09/07 A3014 RMK AO2 SLP202 T00890067 10128 20089 53001
Loading
Personal Weather Stations






























Interactive Weather Map
Tropical Storm Tracking
New forecast layout! Learn more

10-Day Weather Forecast

Advertisements
Track Severe Weather on mobile